• Join FlightAware (Why Join?)
  • Login
  • US Flag 
08:36PM EDT


 

Airport Tracker/Info


-or-


 

Live Flight TrackerFlight Track Log ✈ N5275W ✈ 25-Oct-2013 ✈ KMTN - KSWF

Flight Track Log - Related Links

Times and Time Zones

All times are in EDT time to prevent confusion due to time zone crossing. See the N5275W flight status page for this flight to view local times or setup timezone preferences in your user account.

Time Position Orientation Groundspeed Altitude Reporting Facility
EDT Latitude Longitude Course Direction KTS MPH feet Rate Location/Type
05:25PM 39.4833 -76.2833 37° Northeast 107 123 3,500  Level Potomac TRACON
05:26PM 39.5167 -76.2500 38° Northeast 107 123 3,500  Level Potomac TRACON
05:27PM 39.5333 -76.2333 38° Northeast 109 125 3,500  Level Potomac TRACON
05:28PM 39.5833 -76.1833 38° Northeast 105 121 3,500  Level Philadelphia TRACON
05:29PM 39.6000 -76.1667 38° Northeast 106 122 3,500  Level Philadelphia TRACON
05:30PM 39.4882 -76.2481 37° Northeast  Level Estimated
05:30PM 39.6167 -76.1333 57° Northeast 104 120 3,600  Level Philadelphia TRACON
05:31PM 39.6500 -76.1167 21° North 108 124 3,600  Level Philadelphia TRACON
05:32PM 39.6667 -76.1000 38° Northeast 103 119 3,600 -60 Level Philadelphia TRACON
05:33PM 39.6833 -76.0667 57° Northeast 101 116 3,500  Descending Philadelphia TRACON
05:34PM 39.7167 -76.0500 21° North 111 128 3,600  Climbing Philadelphia TRACON
05:35PM 39.7333 -76.0000 67° East 109 125 3,500  Descending Philadelphia TRACON
05:37PM 39.7500 -75.9667 57° Northeast 112 129 3,600  Climbing Philadelphia TRACON
05:38PM 39.7667 -75.9333 57° Northeast 117 135 3,600  Level Philadelphia TRACON
05:38PM 39.7833 -75.9000 57° Northeast 112 129 3,600 -60 Level Philadelphia TRACON
05:39PM 39.8000 -75.8833 38° Northeast 109 125 3,500  Descending Philadelphia TRACON
05:40PM 39.8167 -75.8500 57° Northeast 110 127 3,600  Climbing Philadelphia TRACON
05:42PM 39.8500 -75.8000 49° Northeast 113 130 3,600  Level Philadelphia TRACON
05:42PM 39.8667 -75.7833 38° Northeast 110 127 3,600 -60 Level Philadelphia TRACON
05:43PM 39.8833 -75.7500 57° Northeast 110 127 3,500 -60 Descending Philadelphia TRACON
05:45PM 39.9000 -75.7167 57° Northeast 106 122 3,500  Level Philadelphia TRACON
05:46PM 39.9167 -75.6833 57° Northeast 108 124 3,500  Level Philadelphia TRACON
05:46PM 39.9333 -75.6667 37° Northeast 107 123 3,500  Level Philadelphia TRACON
05:48PM 39.9667 -75.6333 37° Northeast 102 117 3,500  Level Philadelphia TRACON
05:48PM 39.9833 -75.6167 37° Northeast 106 122 3,600  Climbing Philadelphia TRACON
05:49PM 40.0000 -75.6000 37° Northeast 101 116 3,500 -60 Descending Philadelphia TRACON
05:50PM 40.0333 -75.5667 37° Northeast 102 117 3,500  Level Philadelphia TRACON
05:51PM 40.0500 -75.5500 37° Northeast 105 121 3,500  Level Philadelphia TRACON
05:52PM 40.0667 -75.5333 37° Northeast 104 120 3,500  Level Philadelphia TRACON
05:53PM 40.1000 -75.5000 37° Northeast 111 128 3,500  Level Philadelphia TRACON
05:54PM 40.1167 -75.4833 37° Northeast 104 120 3,600  Climbing Philadelphia TRACON
05:55PM 40.1333 -75.4667 37° Northeast 109 125 3,500 -60 Descending Philadelphia TRACON
05:56PM 40.1667 -75.4333 37° Northeast 106 122 3,500  Level Philadelphia TRACON
05:58PM 40.2000 -75.4000 37° Northeast 110 127 3,500  Level Philadelphia TRACON
05:58PM 40.2167 -75.3833 37° Northeast 105 121 3,500  Level Philadelphia TRACON
06:00PM 40.2333 -75.3667 37° Northeast 107 123 3,500  Level Philadelphia TRACON
06:01PM 40.2667 -75.3333 37° Northeast 110 127 3,500  Level Philadelphia TRACON
06:01PM 40.2833 -75.3167 37° Northeast 111 128 3,500  Level Philadelphia TRACON
06:03PM 40.3193 -75.2939 26° Northeast  Level FlightAware Approximate
06:10PM 40.5397 -75.1227 39° Northeast  Level FlightAware Approximate
06:11PM 40.5680 -75.0927 39° Northeast  Level FlightAware Approximate
06:11PM 40.5167 -75.1000 39° Northeast 113 130 3,500  Level New York TRACON
06:12PM 40.5962 -75.0627 39° Northeast  Level FlightAware Approximate
06:12PM 40.5333 -75.0667 57° Northeast 113 130 3,500  Level New York TRACON
06:13PM 40.6245 -75.0327 39° Northeast  Level FlightAware Approximate
06:13PM 40.5667 -75.0500 21° North 108 124 3,500  Level New York TRACON
06:14PM 40.6527 -75.0027 39° Northeast  Level FlightAware Approximate
06:14PM 40.5833 -75.0167 57° Northeast 109 125 3,500  Level New York TRACON
06:15PM 40.6809 -74.9726 39° Northeast  Level FlightAware Approximate
06:15PM 40.6167 -75.0000 21° North 109 125 3,500  Level New York TRACON
06:16PM 40.7091 -74.9425 39° Northeast  Level FlightAware Approximate
06:16PM 40.6333 -74.9833 37° Northeast 110 127 3,500  Level New York TRACON
06:17PM 40.6667 -74.9500 37° Northeast 113 130 3,500  Level New York TRACON
06:18PM 40.6833 -74.9333 37° Northeast 111 128 3,500  Level New York TRACON
06:19PM 40.7000 -74.9000 57° Northeast 112 129 3,500  Level New York TRACON
06:20PM 40.7333 -74.8833 21° North 109 125 3,500  Level New York TRACON
06:21PM 40.7500 -74.8500 57° Northeast 104 120 3,500  Level New York TRACON
06:22PM 40.7833 -74.8333 21° North 108 124 3,500  Level New York TRACON
06:23PM 40.8000 -74.8167 37° Northeast 113 130 3,500  Level New York TRACON
06:24PM 40.8333 -74.7833 37° Northeast 110 127 3,500  Level New York TRACON
06:25PM 40.8500 -74.7667 37° Northeast 107 123 3,500  Level New York TRACON
06:26PM 40.8833 -74.7333 37° Northeast 110 127 3,500  Level New York TRACON
06:27PM 40.9000 -74.7167 37° Northeast 107 123 3,500  Level New York TRACON
06:28PM 40.9167 -74.7000 37° Northeast 110 127 3,500  Level New York TRACON
06:29PM 40.9500 -74.6667 37° Northeast 111 128 3,500  Level New York TRACON
06:30PM 40.9667 -74.6333 56° Northeast 112 129 3,500  Level New York TRACON
06:31PM 41.0000 -74.6167 21° North 113 130 3,500  Level New York TRACON
06:32PM 41.0167 -74.5833 56° Northeast 111 128 3,500  Level New York TRACON
06:33PM 41.0500 -74.5667 21° North 110 127 3,500  Level New York TRACON
06:34PM 41.0667 -74.5500 37° Northeast 108 124 3,500  Level New York TRACON
06:35PM 41.1000 -74.5167 37° Northeast 109 125 3,500  Level New York TRACON
06:36PM 41.1167 -74.5000 37° Northeast 106 122 3,500  Level New York TRACON
06:37PM 41.1500 -74.4667 37° Northeast 110 127 3,500  Level New York TRACON
06:38PM 41.1667 -74.4500 37° Northeast 110 127 3,500  Level New York TRACON
06:39PM 41.1833 -74.4167 56° Northeast 107 123 3,500  Level New York TRACON
06:40PM 41.2167 -74.4000 21° North 106 122 3,500  Level New York TRACON
06:41PM 41.2333 -74.3833 37° Northeast 108 124 3,500  Level New York TRACON
06:42PM 41.2667 -74.3500 37° Northeast 107 123 3,500  Level New York TRACON
06:43PM 41.2833 -74.3333 37° Northeast 104 120 3,500  Level New York TRACON
06:44PM 41.3000 -74.3000 56° Northeast 104 120 3,500  Level New York TRACON
06:45PM 41.3333 -74.2833 21° North 108 124 3,500  Level New York TRACON
06:47PM 41.3714 -74.2286 37° Northeast  Level FlightAware Approximate
06:54PM 41.5000 -74.1000 37° Northeast  Level FlightAware Approximate
06:55PM 41.5041 -74.1048 37° Northeast  Level Estimated
06:56PM 41.5000 -74.1000 37° Northeast  Level FlightAware Approximate
06:57PM 41.5041 -74.1048 37° Northeast  Level Estimated
06:58PM 41.5000 -74.1000 37° Northeast  Level FlightAware Approximate
06:59PM 41.5041 -74.1048 37° Northeast  Level Estimated
07:00PM 41.5000 -74.1000 37° Northeast  Level FlightAware Approximate
07:01PM 41.5041 -74.1048 37° Northeast  Level Estimated
07:02PM 41.5000 -74.1000 37° Northeast  Level FlightAware Approximate
07:03PM 41.5041 -74.1048 37° Northeast  Level Estimated
07:04PM 41.5000 -74.1000 37° Northeast  Level FlightAware Approximate
07:05PM 41.5041 -74.1048 37° Northeast  Level Estimated
07:06PM 41.5000 -74.1000 37° Northeast  Level FlightAware Approximate
07:07PM 41.5041 -74.1048 37° Northeast  Level Estimated
07:08PM 41.5000 -74.1000 37° Northeast  Level FlightAware Approximate